sensor_id;sensor_type;location;lat;lon;timestamp;P1;durP1;ratioP1;P2;durP2;ratioP2
17636;SDS011;8937;51.236;6.794;2023-08-08T00:01:35;1.27;;;1.10;;
17636;SDS011;8937;51.236;6.794;2023-08-08T00:09:57;1.27;;;1.00;;
17636;SDS011;8937;51.236;6.794;2023-08-08T00:18:20;1.00;;;1.00;;
17636;SDS011;8937;51.236;6.794;2023-08-08T00:26:41;3.10;;;1.20;;
17636;SDS011;8937;51.236;6.794;2023-08-08T00:35:04;1.87;;;1.17;;
17636;SDS011;8937;51.236;6.794;2023-08-08T00:43:25;2.03;;;1.30;;
17636;SDS011;8937;51.236;6.794;2023-08-08T00:51:48;1.07;;;1.07;;
17636;SDS011;8937;51.236;6.794;2023-08-08T01:00:10;1.30;;;1.20;;
17636;SDS011;8937;51.236;6.794;2023-08-08T01:08:35;3.40;;;1.30;;
17636;SDS011;8937;51.236;6.794;2023-08-08T01:17:00;1.67;;;1.20;;
17636;SDS011;8937;51.236;6.794;2023-08-08T01:25:23;2.03;;;1.10;;
17636;SDS011;8937;51.236;6.794;2023-08-08T01:33:44;1.50;;;1.40;;
17636;SDS011;8937;51.236;6.794;2023-08-08T01:42:07;4.53;;;1.60;;
17636;SDS011;8937;51.236;6.794;2023-08-08T01:50:29;2.10;;;1.43;;
17636;SDS011;8937;51.236;6.794;2023-08-08T01:58:51;2.00;;;1.10;;
17636;SDS011;8937;51.236;6.794;2023-08-08T02:07:13;2.57;;;1.23;;
17636;SDS011;8937;51.236;6.794;2023-08-08T02:15:35;2.13;;;1.30;;
17636;SDS011;8937;51.236;6.794;2023-08-08T02:23:57;1.73;;;1.33;;
17636;SDS011;8937;51.236;6.794;2023-08-08T02:32:19;1.40;;;1.30;;
17636;SDS011;8937;51.236;6.794;2023-08-08T02:40:41;1.63;;;1.50;;
17636;SDS011;8937;51.236;6.794;2023-08-08T02:49:03;1.50;;;1.40;;
17636;SDS011;8937;51.236;6.794;2023-08-08T02:57:25;2.40;;;1.50;;
17636;SDS011;8937;51.236;6.794;2023-08-08T03:05:47;1.53;;;1.43;;
17636;SDS011;8937;51.236;6.794;2023-08-08T03:14:09;1.83;;;1.70;;
17636;SDS011;8937;51.236;6.794;2023-08-08T03:22:31;3.13;;;1.40;;
17636;SDS011;8937;51.236;6.794;2023-08-08T03:30:53;1.30;;;1.20;;
17636;SDS011;8937;51.236;6.794;2023-08-08T03:39:16;2.07;;;1.17;;
17636;SDS011;8937;51.236;6.794;2023-08-08T03:47:37;1.63;;;1.53;;
17636;SDS011;8937;51.236;6.794;2023-08-08T03:56:00;3.23;;;1.43;;
17636;SDS011;8937;51.236;6.794;2023-08-08T04:04:21;1.37;;;1.27;;
17636;SDS011;8937;51.236;6.794;2023-08-08T04:12:44;2.27;;;1.40;;
17636;SDS011;8937;51.236;6.794;2023-08-08T04:21:05;2.73;;;1.67;;
17636;SDS011;8937;51.236;6.794;2023-08-08T04:29:28;2.13;;;1.70;;
17636;SDS011;8937;51.236;6.794;2023-08-08T04:37:49;1.87;;;1.77;;
17636;SDS011;8937;51.236;6.794;2023-08-08T04:46:12;3.80;;;1.77;;
17636;SDS011;8937;51.236;6.794;2023-08-08T04:54:33;2.60;;;1.63;;
17636;SDS011;8937;51.236;6.794;2023-08-08T05:02:56;1.73;;;1.53;;
17636;SDS011;8937;51.236;6.794;2023-08-08T05:11:17;6.80;;;1.90;;
17636;SDS011;8937;51.236;6.794;2023-08-08T05:19:40;2.30;;;2.00;;
17636;SDS011;8937;51.236;6.794;2023-08-08T05:28:02;2.27;;;1.87;;
17636;SDS011;8937;51.236;6.794;2023-08-08T05:36:25;3.97;;;2.30;;
17636;SDS011;8937;51.236;6.794;2023-08-08T05:44:46;5.07;;;2.30;;
17636;SDS011;8937;51.236;6.794;2023-08-08T05:53:09;2.40;;;2.20;;
17636;SDS011;8937;51.236;6.794;2023-08-08T06:01:30;2.63;;;2.33;;
17636;SDS011;8937;51.236;6.794;2023-08-08T06:09:53;4.97;;;2.30;;
17636;SDS011;8937;51.236;6.794;2023-08-08T06:18:16;3.13;;;2.60;;
17636;SDS011;8937;51.236;6.794;2023-08-08T06:26:39;2.80;;;2.43;;
17636;SDS011;8937;51.236;6.794;2023-08-08T06:35:00;2.77;;;2.10;;
17636;SDS011;8937;51.236;6.794;2023-08-08T06:43:23;4.27;;;2.17;;
17636;SDS011;8937;51.236;6.794;2023-08-08T06:51:44;3.80;;;2.20;;
17636;SDS011;8937;51.236;6.794;2023-08-08T07:00:07;4.57;;;2.27;;
17636;SDS011;8937;51.236;6.794;2023-08-08T07:08:30;3.83;;;2.30;;
17636;SDS011;8937;51.236;6.794;2023-08-08T07:16:53;4.60;;;2.07;;
17636;SDS011;8937;51.236;6.794;2023-08-08T07:25:16;4.97;;;2.33;;
17636;SDS011;8937;51.236;6.794;2023-08-08T07:33:38;5.18;;;2.58;;
17636;SDS011;8937;51.236;6.794;2023-08-08T07:42:00;4.57;;;2.30;;
17636;SDS011;8937;51.236;6.794;2023-08-08T07:50:23;2.85;;;1.95;;
17636;SDS011;8937;51.236;6.794;2023-08-08T07:58:44;4.90;;;2.00;;
17636;SDS011;8937;51.236;6.794;2023-08-08T08:07:07;4.35;;;2.70;;
17636;SDS011;8937;51.236;6.794;2023-08-08T08:15:28;2.80;;;1.88;;
17636;SDS011;8937;51.236;6.794;2023-08-08T08:23:52;2.58;;;1.55;;
17636;SDS011;8937;51.236;6.794;2023-08-08T08:32:13;2.00;;;1.58;;
17636;SDS011;8937;51.236;6.794;2023-08-08T08:40:37;3.60;;;2.00;;
17636;SDS011;8937;51.236;6.794;2023-08-08T08:48:59;6.93;;;2.38;;
17636;SDS011;8937;51.236;6.794;2023-08-08T08:57:22;2.78;;;2.33;;
17636;SDS011;8937;51.236;6.794;2023-08-08T09:05:44;3.60;;;2.08;;
17636;SDS011;8937;51.236;6.794;2023-08-08T09:14:15;4.88;;;2.47;;
17636;SDS011;8937;51.236;6.794;2023-08-08T09:22:37;3.65;;;2.33;;
17636;SDS011;8937;51.236;6.794;2023-08-08T09:31:00;2.10;;;1.73;;
17636;SDS011;8937;51.236;6.794;2023-08-08T09:39:21;4.18;;;2.28;;
17636;SDS011;8937;51.236;6.794;2023-08-08T09:47:44;3.30;;;1.65;;
17636;SDS011;8937;51.236;6.794;2023-08-08T09:56:06;2.35;;;1.83;;
17636;SDS011;8937;51.236;6.794;2023-08-08T10:04:29;2.90;;;1.63;;
17636;SDS011;8937;51.236;6.794;2023-08-08T10:12:50;5.38;;;1.63;;
17636;SDS011;8937;51.236;6.794;2023-08-08T10:21:13;2.88;;;1.80;;
17636;SDS011;8937;51.236;6.794;2023-08-08T10:29:37;1.48;;;1.35;;
17636;SDS011;8937;51.236;6.794;2023-08-08T10:38:00;2.63;;;1.80;;
17636;SDS011;8937;51.236;6.794;2023-08-08T10:46:25;1.70;;;1.60;;
17636;SDS011;8937;51.236;6.794;2023-08-08T10:54:52;2.28;;;1.88;;
17636;SDS011;8937;51.236;6.794;2023-08-08T11:03:14;2.90;;;1.88;;
17636;SDS011;8937;51.236;6.794;2023-08-08T11:11:38;2.08;;;1.83;;
17636;SDS011;8937;51.236;6.794;2023-08-08T11:19:59;3.58;;;1.65;;
17636;SDS011;8937;51.236;6.794;2023-08-08T11:28:23;3.78;;;2.08;;
17636;SDS011;8937;51.236;6.794;2023-08-08T11:36:45;5.47;;;2.33;;
17636;SDS011;8937;51.236;6.794;2023-08-08T11:45:09;2.88;;;1.73;;
17636;SDS011;8937;51.236;6.794;2023-08-08T11:53:30;3.28;;;1.80;;
17636;SDS011;8937;51.236;6.794;2023-08-08T12:01:53;2.67;;;1.90;;
17636;SDS011;8937;51.236;6.794;2023-08-08T12:10:18;3.70;;;1.58;;
17636;SDS011;8937;51.236;6.794;2023-08-08T12:18:41;1.70;;;1.60;;
17636;SDS011;8937;51.236;6.794;2023-08-08T12:27:04;1.55;;;1.45;;
17636;SDS011;8937;51.236;6.794;2023-08-08T12:35:26;2.53;;;1.40;;
17636;SDS011;8937;51.236;6.794;2023-08-08T12:43:48;4.15;;;1.60;;
17636;SDS011;8937;51.236;6.794;2023-08-08T12:52:11;1.77;;;1.67;;
17636;SDS011;8937;51.236;6.794;2023-08-08T13:00:32;3.45;;;1.90;;
17636;SDS011;8937;51.236;6.794;2023-08-08T13:08:55;3.47;;;1.83;;
17636;SDS011;8937;51.236;6.794;2023-08-08T13:17:17;1.77;;;1.60;;
17636;SDS011;8937;51.236;6.794;2023-08-08T13:25:39;1.95;;;1.85;;
17636;SDS011;8937;51.236;6.794;2023-08-08T13:34:01;3.67;;;2.00;;
17636;SDS011;8937;51.236;6.794;2023-08-08T13:42:25;2.35;;;2.15;;
17636;SDS011;8937;51.236;6.794;2023-08-08T13:50:46;2.03;;;1.45;;
17636;SDS011;8937;51.236;6.794;2023-08-08T13:59:09;2.65;;;1.92;;
17636;SDS011;8937;51.236;6.794;2023-08-08T14:07:30;3.33;;;2.15;;
17636;SDS011;8937;51.236;6.794;2023-08-08T14:15:53;3.88;;;1.95;;
17636;SDS011;8937;51.236;6.794;2023-08-08T14:24:14;1.60;;;1.50;;
17636;SDS011;8937;51.236;6.794;2023-08-08T14:32:37;1.80;;;1.67;;
17636;SDS011;8937;51.236;6.794;2023-08-08T14:40:58;1.83;;;1.40;;
17636;SDS011;8937;51.236;6.794;2023-08-08T14:49:21;1.30;;;1.25;;
17636;SDS011;8937;51.236;6.794;2023-08-08T14:57:43;5.88;;;1.60;;
17636;SDS011;8937;51.236;6.794;2023-08-08T15:06:06;3.40;;;1.30;;
17636;SDS011;8937;51.236;6.794;2023-08-08T15:14:27;2.53;;;1.30;;
17636;SDS011;8937;51.236;6.794;2023-08-08T15:22:50;0.80;;;0.80;;
17636;SDS011;8937;51.236;6.794;2023-08-08T15:31:11;1.48;;;1.38;;
17636;SDS011;8937;51.236;6.794;2023-08-08T15:39:34;3.58;;;1.08;;
17636;SDS011;8937;51.236;6.794;2023-08-08T15:47:55;4.32;;;1.05;;
17636;SDS011;8937;51.236;6.794;2023-08-08T15:56:18;1.15;;;1.05;;
17636;SDS011;8937;51.236;6.794;2023-08-08T16:04:39;1.75;;;1.17;;
17636;SDS011;8937;51.236;6.794;2023-08-08T16:13:02;2.00;;;1.58;;
17636;SDS011;8937;51.236;6.794;2023-08-08T16:21:24;1.13;;;1.10;;
17636;SDS011;8937;51.236;6.794;2023-08-08T16:29:47;2.35;;;1.42;;
17636;SDS011;8937;51.236;6.794;2023-08-08T16:38:08;1.42;;;1.35;;
17636;SDS011;8937;51.236;6.794;2023-08-08T16:46:32;2.92;;;1.23;;
17636;SDS011;8937;51.236;6.794;2023-08-08T16:54:53;1.20;;;1.20;;
17636;SDS011;8937;51.236;6.794;2023-08-08T17:03:16;4.10;;;2.35;;
17636;SDS011;8937;51.236;6.794;2023-08-08T17:11:37;3.20;;;1.60;;
17636;SDS011;8937;51.236;6.794;2023-08-08T17:20:00;1.13;;;1.13;;
17636;SDS011;8937;51.236;6.794;2023-08-08T17:28:25;1.65;;;1.55;;
17636;SDS011;8937;51.236;6.794;2023-08-08T17:36:47;1.67;;;1.60;;
17636;SDS011;8937;51.236;6.794;2023-08-08T17:45:10;3.10;;;1.90;;
17636;SDS011;8937;51.236;6.794;2023-08-08T17:53:33;2.45;;;1.83;;
17636;SDS011;8937;51.236;6.794;2023-08-08T18:01:54;1.23;;;1.20;;
17636;SDS011;8937;51.236;6.794;2023-08-08T18:10:20;1.98;;;1.70;;
17636;SDS011;8937;51.236;6.794;2023-08-08T18:18:41;1.83;;;1.65;;
17636;SDS011;8937;51.236;6.794;2023-08-08T18:27:04;4.13;;;2.50;;
17636;SDS011;8937;51.236;6.794;2023-08-08T18:35:26;5.70;;;2.00;;
17636;SDS011;8937;51.236;6.794;2023-08-08T18:43:48;1.90;;;1.70;;
17636;SDS011;8937;51.236;6.794;2023-08-08T18:52:10;1.83;;;1.73;;
17636;SDS011;8937;51.236;6.794;2023-08-08T19:00:32;1.73;;;1.63;;
17636;SDS011;8937;51.236;6.794;2023-08-08T19:08:54;1.70;;;1.60;;
17636;SDS011;8937;51.236;6.794;2023-08-08T19:17:17;2.33;;;2.08;;
17636;SDS011;8937;51.236;6.794;2023-08-08T19:25:39;1.60;;;1.60;;
17636;SDS011;8937;51.236;6.794;2023-08-08T19:34:01;1.67;;;1.65;;
17636;SDS011;8937;51.236;6.794;2023-08-08T19:42:23;1.87;;;1.77;;
17636;SDS011;8937;51.236;6.794;2023-08-08T19:50:45;3.38;;;1.77;;
17636;SDS011;8937;51.236;6.794;2023-08-08T19:59:07;1.27;;;1.27;;
17636;SDS011;8937;51.236;6.794;2023-08-08T20:07:30;2.30;;;1.27;;
17636;SDS011;8937;51.236;6.794;2023-08-08T20:15:51;1.50;;;1.40;;
17636;SDS011;8937;51.236;6.794;2023-08-08T20:24:14;1.80;;;1.70;;
17636;SDS011;8937;51.236;6.794;2023-08-08T20:32:35;1.20;;;1.10;;
17636;SDS011;8937;51.236;6.794;2023-08-08T20:40:59;1.23;;;1.23;;
17636;SDS011;8937;51.236;6.794;2023-08-08T20:49:21;1.60;;;1.50;;
17636;SDS011;8937;51.236;6.794;2023-08-08T20:57:43;1.23;;;1.20;;
17636;SDS011;8937;51.236;6.794;2023-08-08T21:06:05;1.10;;;1.10;;
17636;SDS011;8937;51.236;6.794;2023-08-08T21:14:27;1.10;;;1.10;;
17636;SDS011;8937;51.236;6.794;2023-08-08T21:22:49;1.10;;;1.10;;
17636;SDS011;8937;51.236;6.794;2023-08-08T21:31:12;1.20;;;1.20;;
17636;SDS011;8937;51.236;6.794;2023-08-08T21:39:33;0.77;;;0.77;;
17636;SDS011;8937;51.236;6.794;2023-08-08T21:47:55;1.00;;;1.00;;
17636;SDS011;8937;51.236;6.794;2023-08-08T21:56:17;0.90;;;0.90;;
17636;SDS011;8937;51.236;6.794;2023-08-08T22:04:39;1.30;;;1.00;;
17636;SDS011;8937;51.236;6.794;2023-08-08T22:13:01;3.80;;;1.27;;
17636;SDS011;8937;51.236;6.794;2023-08-08T22:21:25;1.20;;;1.20;;
17636;SDS011;8937;51.236;6.794;2023-08-08T22:29:46;0.93;;;0.93;;
17636;SDS011;8937;51.236;6.794;2023-08-08T22:38:09;0.90;;;0.90;;
17636;SDS011;8937;51.236;6.794;2023-08-08T22:46:30;0.90;;;0.90;;
17636;SDS011;8937;51.236;6.794;2023-08-08T22:54:53;1.40;;;1.03;;
17636;SDS011;8937;51.236;6.794;2023-08-08T23:03:15;2.03;;;1.60;;
17636;SDS011;8937;51.236;6.794;2023-08-08T23:11:37;3.53;;;1.30;;
17636;SDS011;8937;51.236;6.794;2023-08-08T23:19:59;1.57;;;1.47;;
17636;SDS011;8937;51.236;6.794;2023-08-08T23:28:21;1.37;;;1.30;;
17636;SDS011;8937;51.236;6.794;2023-08-08T23:36:43;2.27;;;1.37;;
17636;SDS011;8937;51.236;6.794;2023-08-08T23:45:06;1.53;;;1.43;;
17636;SDS011;8937;51.236;6.794;2023-08-08T23:53:28;1.57;;;1.47;;
